Pagina principale
METAR-TAF:

METAR-TAF

Aeroporti :

Aeroporto di Taranto-Grottaglie

Taranto, Italia

latitudine: 40-31N, longitudine: 017-24E, altezza: 64 m

Osservazione

Il bollettino è stato emesso 1 ora e 17 minuti fa, alle 11:50 UTC
Vento 7 kt da sud
Temperature 13°C
Umidità 54%
Pressione 1019 hPa
Visibilità 10 km o più
Poco nuvoloso ad un'altezza di 3000 ft

METAR: LIBG 171150Z 19007KT 9999 FEW030 13/04 Q1019

Ora: 14:07 (13:07 UTC)

Previsione

Il bollettino è stato emesso 2 ore e 7 minuti fa, alle 11:00 UTC
Previsione valida dal 17 alle 12 UTC al 17 alle 21 UTC
Vento 8 kt da sud
Visibilità 10 km o più
nessuna nube inferiore a 1500 m e nessun cumulonembo

TAF: LIBG 171100Z 1712/1721 18008KT CAVOK

Osservazioni e previsioni meteorologiche di più di 4000 aeroporti (messaggi METAR e TAF).

Le stazioni disponibili sono rappresentate dai dischi gialli e rossi sulla carta.

Puntare il mouse per vedere il nome della stazione.

Clicca sopra per visualizzare le osservazioni e previsioni meteorologiche.

Per cambiare la mappa : fare clic sui pulsanti verdi con una croce nera per ingrandire, il pulsante verde con un trattino per diminuire, o sulla freccia verde per le mappe adiacenti.


METAR-TAF: